sensor_id;sensor_type;location;lat;lon;timestamp;pressure;altitude;pressure_sealevel;temperature;humidity
42859;BME280;28505;56.970;40.998;2023-04-06T00:02:04;100893.81;;;1.97;100.00
42859;BME280;28505;56.970;40.998;2023-04-06T00:07:26;100905.00;;;2.06;100.00
42859;BME280;28505;56.970;40.998;2023-04-06T00:12:49;100889.53;;;1.96;100.00
42859;BME280;28505;56.970;40.998;2023-04-06T00:18:12;100922.19;;;2.10;100.00
42859;BME280;28505;56.970;40.998;2023-04-06T00:23:35;100902.22;;;1.94;100.00
42859;BME280;28505;56.970;40.998;2023-04-06T00:28:57;100918.94;;;2.01;100.00
42859;BME280;28505;56.970;40.998;2023-04-06T00:34:20;100905.50;;;1.90;100.00
42859;BME280;28505;56.970;40.998;2023-04-06T00:39:43;100902.72;;;1.78;100.00
42859;BME280;28505;56.970;40.998;2023-04-06T00:45:05;100918.00;;;1.82;100.00
42859;BME280;28505;56.970;40.998;2023-04-06T00:50:27;100912.53;;;1.77;100.00
42859;BME280;28505;56.970;40.998;2023-04-06T00:55:49;100923.59;;;1.74;100.00
42859;BME280;28505;56.970;40.998;2023-04-06T01:01:14;100916.25;;;1.63;100.00
42859;BME280;28505;56.970;40.998;2023-04-06T01:06:38;100915.47;;;1.56;100.00
42859;BME280;28505;56.970;40.998;2023-04-06T01:12:01;100910.59;;;1.46;100.00
42859;BME280;28505;56.970;40.998;2023-04-06T01:17:26;100931.66;;;1.48;100.00
42859;BME280;28505;56.970;40.998;2023-04-06T01:22:57;100931.28;;;1.37;100.00
42859;BME280;28505;56.970;40.998;2023-04-06T01:28:20;100932.69;;;1.40;100.00
42859;BME280;28505;56.970;40.998;2023-04-06T01:33:59;100935.16;;;1.42;100.00
42859;BME280;28505;56.970;40.998;2023-04-06T01:39:21;100939.03;;;1.32;100.00
42859;BME280;28505;56.970;40.998;2023-04-06T01:44:44;100928.22;;;1.27;100.00
42859;BME280;28505;56.970;40.998;2023-04-06T01:50:09;100939.25;;;1.24;100.00
42859;BME280;28505;56.970;40.998;2023-04-06T01:55:36;100935.38;;;1.20;100.00
42859;BME280;28505;56.970;40.998;2023-04-06T02:01:22;100931.13;;;1.12;100.00
42859;BME280;28505;56.970;40.998;2023-04-06T02:06:49;100933.38;;;1.09;100.00
42859;BME280;28505;56.970;40.998;2023-04-06T02:12:16;100943.59;;;1.12;100.00
42859;BME280;28505;56.970;40.998;2023-04-06T02:17:39;100944.59;;;1.11;100.00
42859;BME280;28505;56.970;40.998;2023-04-06T02:23:03;100967.09;;;1.08;100.00
42859;BME280;28505;56.970;40.998;2023-04-06T02:28:25;100939.72;;;0.88;100.00
42859;BME280;28505;56.970;40.998;2023-04-06T02:33:48;100951.97;;;0.96;100.00
42859;BME280;28505;56.970;40.998;2023-04-06T02:39:11;100968.50;;;0.98;100.00
42859;BME280;28505;56.970;40.998;2023-04-06T02:44:35;100965.84;;;0.91;100.00
42859;BME280;28505;56.970;40.998;2023-04-06T02:49:58;100967.69;;;0.90;100.00
42859;BME280;28505;56.970;40.998;2023-04-06T02:55:20;100974.84;;;0.90;100.00
42859;BME280;28505;56.970;40.998;2023-04-06T03:00:43;100979.13;;;0.91;100.00
42859;BME280;28505;56.970;40.998;2023-04-06T03:06:06;100983.03;;;0.88;100.00
42859;BME280;28505;56.970;40.998;2023-04-06T03:11:29;100979.13;;;0.84;100.00
42859;BME280;28505;56.970;40.998;2023-04-06T03:17:10;100956.44;;;0.75;100.00
42859;BME280;28505;56.970;40.998;2023-04-06T03:22:33;100994.22;;;1.04;100.00
42859;BME280;28505;56.970;40.998;2023-04-06T03:28:08;100975.06;;;0.88;100.00
42859;BME280;28505;56.970;40.998;2023-04-06T03:33:41;100996.28;;;1.02;100.00
42859;BME280;28505;56.970;40.998;2023-04-06T03:39:09;100984.44;;;1.04;100.00
42859;BME280;28505;56.970;40.998;2023-04-06T03:44:36;100983.81;;;1.09;100.00
42859;BME280;28505;56.970;40.998;2023-04-06T03:50:01;100973.00;;;1.10;100.00
42859;BME280;28505;56.970;40.998;2023-04-06T03:55:29;100990.75;;;1.30;100.00
42859;BME280;28505;56.970;40.998;2023-04-06T04:00:52;100995.63;;;1.39;100.00
42859;BME280;28505;56.970;40.998;2023-04-06T04:06:15;101018.50;;;1.60;100.00
42859;BME280;28505;56.970;40.998;2023-04-06T04:11:37;101012.31;;;1.73;100.00
42859;BME280;28505;56.970;40.998;2023-04-06T04:17:00;100994.31;;;1.75;100.00
42859;BME280;28505;56.970;40.998;2023-04-06T04:22:22;100989.25;;;2.12;100.00
42859;BME280;28505;56.970;40.998;2023-04-06T04:27:49;100995.59;;;2.56;100.00
42859;BME280;28505;56.970;40.998;2023-04-06T04:33:15;101016.78;;;3.01;100.00
42859;BME280;28505;56.970;40.998;2023-04-06T04:38:38;101007.69;;;3.34;100.00
42859;BME280;28505;56.970;40.998;2023-04-06T04:44:02;101005.84;;;3.52;100.00
42859;BME280;28505;56.970;40.998;2023-04-06T04:49:26;101029.13;;;4.01;100.00
42859;BME280;28505;56.970;40.998;2023-04-06T04:54:51;101020.72;;;4.34;100.00
42859;BME280;28505;56.970;40.998;2023-04-06T05:00:19;101038.72;;;4.68;100.00
42859;BME280;28505;56.970;40.998;2023-04-06T05:05:43;101039.00;;;4.79;100.00
42859;BME280;28505;56.970;40.998;2023-04-06T05:11:09;101052.66;;;5.12;100.00
42859;BME280;28505;56.970;40.998;2023-04-06T05:16:37;101039.66;;;5.28;100.00
42859;BME280;28505;56.970;40.998;2023-04-06T05:22:00;101062.56;;;5.71;100.00
42859;BME280;28505;56.970;40.998;2023-04-06T05:33:28;101069.06;;;6.10;100.00
42859;BME280;28505;56.970;40.998;2023-04-06T06:04:18;101034.47;;;6.77;86.20
42859;BME280;28505;56.970;40.998;2023-04-06T06:10:06;101050.13;;;6.86;76.42
42859;BME280;28505;56.970;40.998;2023-04-06T06:21:20;101051.00;;;7.20;72.73
42859;BME280;28505;56.970;40.998;2023-04-06T06:26:44;101044.84;;;7.58;77.04
42859;BME280;28505;56.970;40.998;2023-04-06T06:32:28;101080.91;;;8.23;72.72
42859;BME280;28505;56.970;40.998;2023-04-06T06:37:50;101094.09;;;8.47;70.95
42859;BME280;28505;56.970;40.998;2023-04-06T06:43:15;101083.66;;;8.28;65.75
42859;BME280;28505;56.970;40.998;2023-04-06T06:49:04;101077.94;;;8.41;66.20
42859;BME280;28505;56.970;40.998;2023-04-06T06:54:26;101077.50;;;8.11;61.58
42859;BME280;28505;56.970;40.998;2023-04-06T06:59:49;101073.84;;;8.17;61.44
42859;BME280;28505;56.970;40.998;2023-04-06T07:05:12;101069.91;;;8.03;58.45
42859;BME280;28505;56.970;40.998;2023-04-06T07:10:53;101074.03;;;8.32;62.89
42859;BME280;28505;56.970;40.998;2023-04-06T07:16:15;101084.44;;;8.73;60.14
42859;BME280;28505;56.970;40.998;2023-04-06T07:21:38;101074.81;;;8.77;57.02
42859;BME280;28505;56.970;40.998;2023-04-06T07:27:00;101074.34;;;8.85;58.85
42859;BME280;28505;56.970;40.998;2023-04-06T07:32:26;101046.28;;;9.03;56.53
42859;BME280;28505;56.970;40.998;2023-04-06T07:37:54;101053.00;;;9.32;57.74
42859;BME280;28505;56.970;40.998;2023-04-06T07:43:22;101065.44;;;9.81;58.49
42859;BME280;28505;56.970;40.998;2023-04-06T07:48:45;101053.00;;;9.75;51.92
42859;BME280;28505;56.970;40.998;2023-04-06T07:54:10;101066.75;;;9.41;49.06
42859;BME280;28505;56.970;40.998;2023-04-06T07:59:33;101049.28;;;9.44;51.86
42859;BME280;28505;56.970;40.998;2023-04-06T08:04:55;101053.59;;;9.45;48.21
42859;BME280;28505;56.970;40.998;2023-04-06T08:10:17;101053.13;;;9.53;50.81
42859;BME280;28505;56.970;40.998;2023-04-06T08:15:39;101064.13;;;9.94;50.92
42859;BME280;28505;56.970;40.998;2023-04-06T08:21:02;101055.75;;;10.48;53.87
42859;BME280;28505;56.970;40.998;2023-04-06T08:26:24;101054.88;;;10.27;45.49
42859;BME280;28505;56.970;40.998;2023-04-06T08:31:47;101034.75;;;9.92;47.58
42859;BME280;28505;56.970;40.998;2023-04-06T08:37:09;101051.81;;;10.13;44.17
42859;BME280;28505;56.970;40.998;2023-04-06T08:42:32;101037.78;;;10.01;43.30
42859;BME280;28505;56.970;40.998;2023-04-06T08:47:57;101040.94;;;9.88;43.07
42859;BME280;28505;56.970;40.998;2023-04-06T08:53:23;101028.88;;;10.00;44.92
42859;BME280;28505;56.970;40.998;2023-04-06T08:58:49;101019.63;;;10.44;49.36
42859;BME280;28505;56.970;40.998;2023-04-06T09:04:15;101037.97;;;10.62;45.70
42859;BME280;28505;56.970;40.998;2023-04-06T09:09:38;101067.97;;;10.76;47.07
42859;BME280;28505;56.970;40.998;2023-04-06T09:15:05;101036.56;;;10.29;41.95
42859;BME280;28505;56.970;40.998;2023-04-06T09:20:28;101058.91;;;10.29;44.44
42859;BME280;28505;56.970;40.998;2023-04-06T09:25:50;101044.91;;;10.27;44.72
42859;BME280;28505;56.970;40.998;2023-04-06T09:31:21;101036.84;;;10.38;42.97
42859;BME280;28505;56.970;40.998;2023-04-06T09:36:44;101040.09;;;10.35;42.91
42859;BME280;28505;56.970;40.998;2023-04-06T09:42:09;101033.34;;;10.32;41.58
42859;BME280;28505;56.970;40.998;2023-04-06T09:47:33;101017.91;;;10.22;41.83
42859;BME280;28505;56.970;40.998;2023-04-06T09:52:58;101020.38;;;10.29;41.34
42859;BME280;28505;56.970;40.998;2023-04-06T09:58:23;101020.88;;;10.21;41.24
42859;BME280;28505;56.970;40.998;2023-04-06T10:09:28;101016.94;;;10.54;41.41
42859;BME280;28505;56.970;40.998;2023-04-06T10:14:57;101015.06;;;10.54;41.00
42859;BME280;28505;56.970;40.998;2023-04-06T10:25:54;101013.16;;;10.55;41.15
42859;BME280;28505;56.970;40.998;2023-04-06T10:31:27;101030.75;;;10.73;41.39
42859;BME280;28505;56.970;40.998;2023-04-06T10:36:49;101028.31;;;10.82;40.98
42859;BME280;28505;56.970;40.998;2023-04-06T10:42:14;101036.13;;;10.88;40.60
42859;BME280;28505;56.970;40.998;2023-04-06T10:47:42;101036.38;;;10.71;39.78
42859;BME280;28505;56.970;40.998;2023-04-06T10:53:04;101016.94;;;10.59;38.12
42859;BME280;28505;56.970;40.998;2023-04-06T10:58:27;101041.25;;;10.69;38.70
42859;BME280;28505;56.970;40.998;2023-04-06T11:03:53;100988.34;;;10.43;38.51
42859;BME280;28505;56.970;40.998;2023-04-06T11:09:25;101019.41;;;10.71;38.26
42859;BME280;28505;56.970;40.998;2023-04-06T11:15:02;101014.81;;;10.82;39.77
42859;BME280;28505;56.970;40.998;2023-04-06T11:20:28;101023.44;;;10.89;38.41
42859;BME280;28505;56.970;40.998;2023-04-06T11:25:52;100990.00;;;10.64;39.70
42859;BME280;28505;56.970;40.998;2023-04-06T11:31:14;101024.81;;;10.76;39.28
42859;BME280;28505;56.970;40.998;2023-04-06T11:36:40;100982.44;;;10.71;39.37
42859;BME280;28505;56.970;40.998;2023-04-06T11:42:03;100997.31;;;10.79;39.60
42859;BME280;28505;56.970;40.998;2023-04-06T11:47:31;101004.84;;;10.67;38.41
42859;BME280;28505;56.970;40.998;2023-04-06T11:53:01;100997.28;;;10.69;39.37
42859;BME280;28505;56.970;40.998;2023-04-06T11:58:24;100982.44;;;10.61;38.75
42859;BME280;28505;56.970;40.998;2023-04-06T12:03:47;101012.13;;;10.71;39.17
42859;BME280;28505;56.970;40.998;2023-04-06T12:09:09;100975.41;;;10.45;38.60
42859;BME280;28505;56.970;40.998;2023-04-06T12:14:32;100987.00;;;10.45;37.84
42859;BME280;28505;56.970;40.998;2023-04-06T12:19:56;100995.63;;;10.47;38.82
42859;BME280;28505;56.970;40.998;2023-04-06T12:25:25;100987.81;;;10.51;38.04
42859;BME280;28505;56.970;40.998;2023-04-06T12:30:47;100988.13;;;10.60;39.54
42859;BME280;28505;56.970;40.998;2023-04-06T12:36:13;100967.88;;;10.57;39.32
42859;BME280;28505;56.970;40.998;2023-04-06T12:41:37;100999.72;;;10.70;39.66
42859;BME280;28505;56.970;40.998;2023-04-06T12:47:02;100973.00;;;10.59;39.08
42859;BME280;28505;56.970;40.998;2023-04-06T12:52:29;100957.63;;;10.49;38.92
42859;BME280;28505;56.970;40.998;2023-04-06T12:57:54;100950.84;;;10.36;39.40
42859;BME280;28505;56.970;40.998;2023-04-06T13:03:18;100997.00;;;10.60;39.51
42859;BME280;28505;56.970;40.998;2023-04-06T13:08:40;100961.38;;;10.32;41.67
42859;BME280;28505;56.970;40.998;2023-04-06T13:14:03;100954.03;;;10.23;40.22
42859;BME280;28505;56.970;40.998;2023-04-06T13:19:37;100936.22;;;10.17;40.73
42859;BME280;28505;56.970;40.998;2023-04-06T13:25:00;100954.09;;;10.38;41.00
42859;BME280;28505;56.970;40.998;2023-04-06T13:30:23;100956.47;;;10.24;41.24
42859;BME280;28505;56.970;40.998;2023-04-06T13:35:47;100977.53;;;10.27;41.50
42859;BME280;28505;56.970;40.998;2023-04-06T13:41:17;100967.75;;;10.16;41.77
42859;BME280;28505;56.970;40.998;2023-04-06T13:46:39;100990.50;;;10.30;42.16
42859;BME280;28505;56.970;40.998;2023-04-06T13:52:02;100955.31;;;10.00;42.44
42859;BME280;28505;56.970;40.998;2023-04-06T13:57:25;100963.41;;;10.00;42.08
42859;BME280;28505;56.970;40.998;2023-04-06T14:02:49;100980.66;;;9.99;42.70
42859;BME280;28505;56.970;40.998;2023-04-06T14:08:13;100962.25;;;9.75;42.90
42859;BME280;28505;56.970;40.998;2023-04-06T14:13:35;100992.47;;;9.88;43.15
42859;BME280;28505;56.970;40.998;2023-04-06T14:18:57;100970.81;;;9.67;42.83
42859;BME280;28505;56.970;40.998;2023-04-06T14:24:20;100980.50;;;9.63;44.10
42859;BME280;28505;56.970;40.998;2023-04-06T14:29:43;100955.59;;;9.35;43.57
42859;BME280;28505;56.970;40.998;2023-04-06T14:35:17;100949.81;;;9.17;44.05
42859;BME280;28505;56.970;40.998;2023-04-06T14:40:49;101001.06;;;9.37;44.78
42859;BME280;28505;56.970;40.998;2023-04-06T14:46:19;100957.25;;;9.04;44.80
42859;BME280;28505;56.970;40.998;2023-04-06T14:51:42;100945.84;;;8.87;45.06
42859;BME280;28505;56.970;40.998;2023-04-06T14:57:04;100998.34;;;8.95;46.08
42859;BME280;28505;56.970;40.998;2023-04-06T15:02:28;100974.41;;;8.61;46.54
42859;BME280;28505;56.970;40.998;2023-04-06T15:07:51;100959.13;;;8.39;46.68
42859;BME280;28505;56.970;40.998;2023-04-06T15:13:23;100987.47;;;8.30;46.95
42859;BME280;28505;56.970;40.998;2023-04-06T15:18:51;101009.44;;;8.22;46.83
42859;BME280;28505;56.970;40.998;2023-04-06T15:24:35;100969.16;;;7.78;47.80
42859;BME280;28505;56.970;40.998;2023-04-06T15:30:00;100986.97;;;7.62;48.35
42859;BME280;28505;56.970;40.998;2023-04-06T15:35:22;100996.19;;;7.49;48.65
42859;BME280;28505;56.970;40.998;2023-04-06T15:40:47;101007.56;;;7.40;48.65
42859;BME280;28505;56.970;40.998;2023-04-06T15:46:11;100997.59;;;7.18;48.94
42859;BME280;28505;56.970;40.998;2023-04-06T15:51:38;101009.88;;;6.97;49.92
42859;BME280;28505;56.970;40.998;2023-04-06T15:57:01;101006.59;;;6.78;50.63
42859;BME280;28505;56.970;40.998;2023-04-06T16:02:24;101015.19;;;6.64;50.90
42859;BME280;28505;56.970;40.998;2023-04-06T16:07:47;101018.75;;;6.52;50.98
42859;BME280;28505;56.970;40.998;2023-04-06T16:13:12;101027.81;;;6.23;51.62
42859;BME280;28505;56.970;40.998;2023-04-06T16:18:35;101027.41;;;6.02;52.54
42859;BME280;28505;56.970;40.998;2023-04-06T16:23:58;101048.00;;;5.90;52.78
42859;BME280;28505;56.970;40.998;2023-04-06T16:29:36;101064.66;;;5.80;53.40
42859;BME280;28505;56.970;40.998;2023-04-06T16:42:42;101072.09;;;5.31;54.85
42859;BME280;28505;56.970;40.998;2023-04-06T16:48:05;101059.00;;;5.00;55.40
42859;BME280;28505;56.970;40.998;2023-04-06T16:53:28;101028.25;;;4.67;56.16
42859;BME280;28505;56.970;40.998;2023-04-06T16:58:50;101046.47;;;4.58;56.81
42859;BME280;28505;56.970;40.998;2023-04-06T17:04:13;101062.06;;;4.43;57.33
42859;BME280;28505;56.970;40.998;2023-04-06T17:09:36;101039.50;;;4.09;58.14
42859;BME280;28505;56.970;40.998;2023-04-06T17:15:00;101045.81;;;3.96;58.67
42859;BME280;28505;56.970;40.998;2023-04-06T17:20:23;101064.94;;;3.93;59.33
42859;BME280;28505;56.970;40.998;2023-04-06T17:25:46;101061.47;;;3.92;59.79
42859;BME280;28505;56.970;40.998;2023-04-06T17:31:10;101061.38;;;3.81;60.21
42859;BME280;28505;56.970;40.998;2023-04-06T17:36:33;101091.16;;;3.78;61.31
42859;BME280;28505;56.970;40.998;2023-04-06T17:41:58;101093.81;;;3.78;61.61
42859;BME280;28505;56.970;40.998;2023-04-06T17:47:21;101080.50;;;3.52;62.00
42859;BME280;28505;56.970;40.998;2023-04-06T17:52:43;101076.94;;;3.40;62.53
42859;BME280;28505;56.970;40.998;2023-04-06T17:58:11;101099.50;;;3.38;62.83
42859;BME280;28505;56.970;40.998;2023-04-06T18:03:33;101093.50;;;3.17;63.62
42859;BME280;28505;56.970;40.998;2023-04-06T18:08:55;101096.81;;;3.13;64.10
42859;BME280;28505;56.970;40.998;2023-04-06T18:14:17;101107.13;;;3.02;64.94
42859;BME280;28505;56.970;40.998;2023-04-06T18:19:40;101125.16;;;3.00;65.80
42859;BME280;28505;56.970;40.998;2023-04-06T18:25:03;101115.78;;;2.98;66.66
42859;BME280;28505;56.970;40.998;2023-04-06T18:30:25;101103.94;;;2.87;66.34
42859;BME280;28505;56.970;40.998;2023-04-06T18:35:48;101075.09;;;2.77;66.12
42859;BME280;28505;56.970;40.998;2023-04-06T18:41:10;101130.91;;;2.97;66.37
42859;BME280;28505;56.970;40.998;2023-04-06T18:46:33;101134.47;;;2.91;66.92
42859;BME280;28505;56.970;40.998;2023-04-06T18:51:54;101119.56;;;2.77;67.64
42859;BME280;28505;56.970;40.998;2023-04-06T18:57:19;101103.72;;;2.50;67.63
42859;BME280;28505;56.970;40.998;2023-04-06T19:02:42;101133.56;;;2.66;68.19
42859;BME280;28505;56.970;40.998;2023-04-06T19:08:05;101129.31;;;2.51;68.71
42859;BME280;28505;56.970;40.998;2023-04-06T19:13:27;101113.81;;;2.35;69.52
42859;BME280;28505;56.970;40.998;2023-04-06T19:18:53;101108.50;;;2.28;70.38
42859;BME280;28505;56.970;40.998;2023-04-06T19:24:20;101097.91;;;2.15;70.88
42859;BME280;28505;56.970;40.998;2023-04-06T19:29:43;101125.31;;;2.22;71.59
42859;BME280;28505;56.970;40.998;2023-04-06T19:35:07;101139.22;;;2.24;71.92
42859;BME280;28505;56.970;40.998;2023-04-06T19:40:29;101145.59;;;2.17;73.46
42859;BME280;28505;56.970;40.998;2023-04-06T19:45:52;101137.84;;;2.02;74.20
42859;BME280;28505;56.970;40.998;2023-04-06T19:51:17;101147.88;;;2.00;74.36
42859;BME280;28505;56.970;40.998;2023-04-06T19:56:39;101144.22;;;1.87;75.69
42859;BME280;28505;56.970;40.998;2023-04-06T20:02:01;101140.75;;;1.87;76.22
42859;BME280;28505;56.970;40.998;2023-04-06T20:07:27;101123.56;;;1.63;76.89
42859;BME280;28505;56.970;40.998;2023-04-06T20:12:54;101158.34;;;1.75;77.76
42859;BME280;28505;56.970;40.998;2023-04-06T20:18:20;101156.91;;;1.72;78.52
42859;BME280;28505;56.970;40.998;2023-04-06T20:23:43;101124.19;;;1.52;78.11
42859;BME280;28505;56.970;40.998;2023-04-06T20:35:04;101157.13;;;1.64;79.23
42859;BME280;28505;56.970;40.998;2023-04-06T20:40:27;101097.81;;;1.24;79.81
42859;BME280;28505;56.970;40.998;2023-04-06T20:46:14;101100.47;;;1.17;81.53
42859;BME280;28505;56.970;40.998;2023-04-06T20:51:37;101112.94;;;1.16;81.88
42859;BME280;28505;56.970;40.998;2023-04-06T20:57:12;101164.88;;;1.39;82.25
42859;BME280;28505;56.970;40.998;2023-04-06T21:02:39;101115.78;;;1.02;83.26
42859;BME280;28505;56.970;40.998;2023-04-06T21:14:54;101120.19;;;0.75;85.10
42859;BME280;28505;56.970;40.998;2023-04-06T21:20:20;101128.56;;;0.72;85.64
42859;BME280;28505;56.970;40.998;2023-04-06T21:25:52;101125.47;;;0.61;86.26
42859;BME280;28505;56.970;40.998;2023-04-06T21:31:19;101155.50;;;0.75;87.65
42859;BME280;28505;56.970;40.998;2023-04-06T21:36:42;101151.00;;;0.62;88.36
42859;BME280;28505;56.970;40.998;2023-04-06T21:42:05;101155.84;;;0.59;89.01
42859;BME280;28505;56.970;40.998;2023-04-06T21:47:28;101165.63;;;0.52;90.74
42859;BME280;28505;56.970;40.998;2023-04-06T21:52:50;101167.84;;;0.48;91.44
42859;BME280;28505;56.970;40.998;2023-04-06T21:58:13;101173.13;;;0.41;92.82
42859;BME280;28505;56.970;40.998;2023-04-06T22:03:37;101161.69;;;0.34;94.32
42859;BME280;28505;56.970;40.998;2023-04-06T22:09:00;101152.44;;;0.23;95.01
42859;BME280;28505;56.970;40.998;2023-04-06T22:14:26;101164.47;;;0.26;95.90
42859;BME280;28505;56.970;40.998;2023-04-06T22:19:48;101182.09;;;0.34;96.81
42859;BME280;28505;56.970;40.998;2023-04-06T22:25:11;101191.88;;;0.33;98.31
42859;BME280;28505;56.970;40.998;2023-04-06T22:54:35;101196.59;;;0.10;100.00
42859;BME280;28505;56.970;40.998;2023-04-06T23:11:33;101153.56;;;-0.20;100.00
42859;BME280;28505;56.970;40.998;2023-04-06T23:16:55;101194.94;;;0.02;100.00
42859;BME280;28505;56.970;40.998;2023-04-06T23:22:18;101170.06;;;-0.25;100.00
42859;BME280;28505;56.970;40.998;2023-04-06T23:27:40;101201.75;;;-0.10;100.00
42859;BME280;28505;56.970;40.998;2023-04-06T23:33:02;101198.06;;;-0.16;100.00
42859;BME280;28505;56.970;40.998;2023-04-06T23:38:25;101208.03;;;-0.18;100.00
42859;BME280;28505;56.970;40.998;2023-04-06T23:43:47;101188.13;;;-0.35;100.00
42859;BME280;28505;56.970;40.998;2023-04-06T23:49:09;101197.13;;;-0.30;100.00
42859;BME280;28505;56.970;40.998;2023-04-06T23:54:32;101197.06;;;-0.36;100.00
42859;BME280;28505;56.970;40.998;2023-04-06T23:59:54;101187.88;;;-0.40;100.00
